createdAt,value
2018-11-26T00:02:06.959Z,8.70
2018-11-26T00:04:38.199Z,8.72
2018-11-26T00:07:28.014Z,8.88
2018-11-26T00:10:56.071Z,8.75
2018-11-26T00:13:45.877Z,8.60
2018-11-26T00:16:35.694Z,8.62
2018-11-26T00:19:25.506Z,8.75
2018-11-26T00:22:15.670Z,8.71
2018-11-26T00:25:24.322Z,8.68
2018-11-26T00:28:14.483Z,8.61
2018-11-26T00:31:04.833Z,8.76
2018-11-26T00:33:54.630Z,8.72
2018-11-26T00:36:44.682Z,8.67
2018-11-26T00:39:34.474Z,8.66
2018-11-26T00:42:24.519Z,8.74
2018-11-26T00:45:14.329Z,8.76
2018-11-26T00:48:04.146Z,8.60
2018-11-26T00:50:54.705Z,8.58
2018-11-26T00:53:44.521Z,8.68
2018-11-26T00:56:34.646Z,8.72
2018-11-26T00:59:24.454Z,8.75
2018-11-26T01:02:14.608Z,8.85
2018-11-26T01:05:04.682Z,8.93
2018-11-26T01:07:54.793Z,8.81
2018-11-26T01:10:44.593Z,8.71
2018-11-26T01:13:34.705Z,8.62
2018-11-26T01:16:24.803Z,8.57
2018-11-26T01:19:14.866Z,8.75
2018-11-26T01:22:04.933Z,8.83
2018-11-26T01:24:54.733Z,8.82
2018-11-26T01:30:34.305Z,8.84
2018-11-26T01:33:24.114Z,8.83
2018-11-26T01:36:14.257Z,8.73
2018-11-26T01:39:04.354Z,8.71
2018-11-26T01:41:54.162Z,8.68
2018-11-26T01:44:44.331Z,8.68
2018-11-26T01:47:34.114Z,8.74
2018-11-26T01:50:23.910Z,8.76
2018-11-26T01:53:13.759Z,8.73
2018-11-26T01:56:04.128Z,8.67
2018-11-26T01:58:54.527Z,8.60
2018-11-26T02:01:44.612Z,8.57
2018-11-26T02:04:34.703Z,8.63
2018-11-26T02:07:24.751Z,8.58
2018-11-26T02:10:33.996Z,8.67
2018-11-26T02:13:24.124Z,8.76
2018-11-26T02:16:13.926Z,8.72
2018-11-26T02:19:04.083Z,8.65
2018-11-26T02:21:53.879Z,8.71
2018-11-26T02:24:43.722Z,8.76
2018-11-26T02:27:33.526Z,8.73
2018-11-26T02:30:23.802Z,8.69
2018-11-26T02:33:13.614Z,8.67
2018-11-26T02:36:03.423Z,8.57
2018-11-26T02:38:53.791Z,8.56
2018-11-26T02:41:43.850Z,8.54
2018-11-26T02:44:33.675Z,8.47
2018-11-26T02:47:23.871Z,8.53
2018-11-26T02:50:14.034Z,8.54
2018-11-26T02:53:03.865Z,8.62
2018-11-26T02:55:53.664Z,8.55
2018-11-26T02:58:43.705Z,8.51
2018-11-26T03:01:33.515Z,8.62
2018-11-26T03:04:23.607Z,8.62
2018-11-26T03:07:13.400Z,8.66
2018-11-26T03:10:03.532Z,8.62
2018-11-26T03:12:53.749Z,8.62
2018-11-26T03:15:43.568Z,8.61
2018-11-26T03:18:33.397Z,8.57
2018-11-26T03:21:23.640Z,8.55
2018-11-26T03:24:13.427Z,8.52
2018-11-26T03:27:03.223Z,8.66
2018-11-26T03:29:53.709Z,8.70
2018-11-26T03:32:43.505Z,8.61
2018-11-26T03:35:33.299Z,8.60
2018-11-26T03:39:01.787Z,8.55
2018-11-26T03:41:51.585Z,8.60
2018-11-26T03:44:41.401Z,8.62
2018-11-26T03:47:31.210Z,8.53
2018-11-26T03:50:39.659Z,8.53
2018-11-26T03:53:29.456Z,8.47
2018-11-26T03:56:19.558Z,8.38
2018-11-26T03:59:09.361Z,8.24
2018-11-26T04:01:59.192Z,8.43
2018-11-26T04:04:48.971Z,8.27
2018-11-26T04:07:38.775Z,8.19
2018-11-26T04:10:28.587Z,8.24
2018-11-26T04:13:18.390Z,8.17
2018-11-26T04:16:08.203Z,8.17
2018-11-26T04:18:58.024Z,8.32
2018-11-26T04:21:47.820Z,8.36
2018-11-26T04:24:37.637Z,8.36
2018-11-26T04:27:27.429Z,8.44
2018-11-26T04:30:17.215Z,8.51
2018-11-26T04:33:07.365Z,8.33
2018-11-26T04:35:49.864Z,8.34
2018-11-26T04:38:39.914Z,8.31
2018-11-26T04:41:30.042Z,8.33
2018-11-26T04:44:20.091Z,8.49
2018-11-26T04:47:10.229Z,8.45
2018-11-26T04:50:18.647Z,8.43
2018-11-26T04:53:08.729Z,8.36
2018-11-26T04:55:58.762Z,8.35
2018-11-26T04:58:48.901Z,8.39
2018-11-26T05:01:38.688Z,8.33
2018-11-26T05:04:28.732Z,8.30
2018-11-26T05:07:37.205Z,8.33
2018-11-26T05:10:27.231Z,8.74
2018-11-26T05:13:17.281Z,8.41
2018-11-26T05:16:07.275Z,8.45
2018-11-26T05:18:57.666Z,8.50
2018-11-26T05:21:47.736Z,8.52
2018-11-26T05:24:37.844Z,8.41
2018-11-26T05:27:27.903Z,8.38
2018-11-26T05:30:18.188Z,8.34
2018-11-26T05:33:08.958Z,8.43
2018-11-26T05:35:59.017Z,8.35
2018-11-26T05:38:49.406Z,8.44
2018-11-26T05:41:39.777Z,8.41
2018-11-26T05:44:29.859Z,8.30
2018-11-26T05:47:19.655Z,8.36
2018-11-26T05:50:11.116Z,8.32
2018-11-26T05:53:01.255Z,8.37
2018-11-26T05:55:51.308Z,8.39
2018-11-26T05:59:01.818Z,8.48
2018-11-26T06:02:20.494Z,8.43
2018-11-26T06:04:51.381Z,8.47
2018-11-26T06:09:55.578Z,8.55
2018-11-26T06:12:25.488Z,8.50
2018-11-26T06:14:55.436Z,8.50
2018-11-26T06:17:25.354Z,8.39
2018-11-26T06:19:55.267Z,8.47
2018-11-26T06:22:25.187Z,8.57
2018-11-26T06:24:55.101Z,8.63
2018-11-26T06:27:25.022Z,8.62
2018-11-26T06:29:54.933Z,8.58
2018-11-26T06:32:24.841Z,8.51
2018-11-26T06:34:54.753Z,8.47
2018-11-26T06:37:24.666Z,8.48
2018-11-26T06:39:54.573Z,8.52
2018-11-26T06:42:24.518Z,8.54
2018-11-26T06:44:54.420Z,8.60
2018-11-26T06:47:24.345Z,8.64
2018-11-26T06:49:54.237Z,8.58
2018-11-26T06:52:24.237Z,8.41
2018-11-26T06:54:54.252Z,8.40
2018-11-26T06:57:24.176Z,8.45
2018-11-26T06:59:54.155Z,8.40
2018-11-26T07:02:24.159Z,8.36
2018-11-26T07:04:54.138Z,8.36
2018-11-26T07:07:24.048Z,8.52
2018-11-26T07:09:53.963Z,8.47
2018-11-26T07:12:23.913Z,8.51
2018-11-26T07:14:53.804Z,8.53
2018-11-26T07:19:49.532Z,8.43
2018-11-26T07:22:19.439Z,8.43
2018-11-26T07:24:49.323Z,8.56
2018-11-26T07:27:19.291Z,8.59
2018-11-26T07:29:49.211Z,8.39
2018-11-26T07:32:19.133Z,8.30
2018-11-26T07:34:49.123Z,8.46
2018-11-26T07:37:19.074Z,8.46
2018-11-26T07:39:49.260Z,8.55
2018-11-26T07:42:19.205Z,8.58
2018-11-26T07:44:49.296Z,8.56
2018-11-26T07:47:20.349Z,8.68
2018-11-26T07:49:50.343Z,8.60
2018-11-26T07:52:20.289Z,8.58
2018-11-26T07:54:50.715Z,8.55
2018-11-26T07:57:20.753Z,8.63
2018-11-26T07:59:50.789Z,8.57
2018-11-26T08:02:20.882Z,8.63
2018-11-26T08:04:50.930Z,8.68
2018-11-26T08:07:20.961Z,8.65
2018-11-26T08:09:51.231Z,8.63
2018-11-26T08:12:21.960Z,8.69
2018-11-26T08:14:52.431Z,8.62
2018-11-26T08:17:23.316Z,8.66
2018-11-26T08:19:53.223Z,8.66
2018-11-26T08:22:23.127Z,8.52
2018-11-26T08:24:53.173Z,8.60
2018-11-26T08:27:23.331Z,8.66
2018-11-26T08:29:53.304Z,8.62
2018-11-26T08:32:23.329Z,8.54
2018-11-26T08:34:53.316Z,8.56
2018-11-26T08:37:28.544Z,8.47
2018-11-26T08:40:03.638Z,8.53
2018-11-26T08:42:39.056Z,8.59
2018-11-26T08:45:16.587Z,8.63
2018-11-26T08:47:54.323Z,8.67
2018-11-26T08:50:24.207Z,8.64
2018-11-26T08:52:54.153Z,8.63
2018-11-26T08:55:24.084Z,8.50
2018-11-26T08:57:53.991Z,8.61
2018-11-26T09:00:24.112Z,8.78
2018-11-26T09:02:56.579Z,8.66
2018-11-26T09:05:31.668Z,8.62
2018-11-26T09:08:01.656Z,8.61
2018-11-26T09:10:31.540Z,8.65
2018-11-26T09:13:01.495Z,8.68
2018-11-26T09:15:31.383Z,8.73
2018-11-26T09:18:01.310Z,8.72
2018-11-26T09:20:31.260Z,8.73
2018-11-26T09:23:01.252Z,8.83
2018-11-26T09:25:31.235Z,8.76
2018-11-26T09:28:01.629Z,8.66
2018-11-26T09:30:31.612Z,8.73
2018-11-26T09:33:01.505Z,8.78
2018-11-26T09:35:31.552Z,8.77
2018-11-26T09:38:01.460Z,8.73
2018-11-26T09:40:31.381Z,8.73
2018-11-26T09:43:01.277Z,8.80
2018-11-26T09:45:31.242Z,8.84
2018-11-26T09:48:01.144Z,8.81
2018-11-26T09:50:31.083Z,8.78
2018-11-26T09:53:01.017Z,8.70
2018-11-26T09:55:31.032Z,8.70
2018-11-26T09:58:00.972Z,8.72
2018-11-26T10:00:30.907Z,8.64
2018-11-26T10:03:00.865Z,8.77
2018-11-26T10:05:30.768Z,8.70
2018-11-26T10:08:00.710Z,8.70
2018-11-26T10:10:30.678Z,8.78
2018-11-26T10:13:00.684Z,8.74
2018-11-26T10:15:30.608Z,8.74
2018-11-26T10:18:00.613Z,8.75
2018-11-26T10:20:30.660Z,8.69
2018-11-26T10:23:00.576Z,8.66
2018-11-26T10:25:30.560Z,8.60
2018-11-26T10:28:02.017Z,8.56
2018-11-26T10:30:31.926Z,8.62
2018-11-26T10:33:01.825Z,8.62
2018-11-26T10:35:31.998Z,8.50
2018-11-26T10:38:01.883Z,8.47
2018-11-26T10:40:31.775Z,8.47
2018-11-26T10:43:01.695Z,8.49
2018-11-26T10:45:31.738Z,8.54
2018-11-26T10:48:01.615Z,8.51
2018-11-26T10:50:31.531Z,8.41
2018-11-26T10:53:01.451Z,8.39
2018-11-26T10:55:35.755Z,8.48
2018-11-26T10:58:06.475Z,8.50
2018-11-26T11:00:38.390Z,8.44
2018-11-26T11:03:08.289Z,8.50
2018-11-26T11:05:38.511Z,8.48
2018-11-26T11:08:08.836Z,8.50
2018-11-26T11:10:38.736Z,8.41
2018-11-26T11:13:08.961Z,8.43
2018-11-26T11:15:38.884Z,8.42
2018-11-26T11:18:08.980Z,8.43
2018-11-26T11:20:38.933Z,8.37
2018-11-26T11:23:09.843Z,8.40
2018-11-26T11:25:41.025Z,8.46
2018-11-26T11:28:12.725Z,8.49
2018-11-26T11:30:42.690Z,8.38
2018-11-26T11:35:41.879Z,8.50
2018-11-26T11:38:13.150Z,8.49
2018-11-26T11:40:43.173Z,8.47
2018-11-26T11:43:13.070Z,8.42
2018-11-26T11:45:42.995Z,8.45
2018-11-26T11:48:12.899Z,8.47
2018-11-26T11:50:42.809Z,8.57
2018-11-26T11:53:12.742Z,8.56
2018-11-26T11:55:42.826Z,8.63
2018-11-26T11:58:12.712Z,8.49
2018-11-26T12:00:44.608Z,8.39
2018-11-26T12:03:19.126Z,8.39
2018-11-26T12:05:49.069Z,8.55
2018-11-26T12:08:18.993Z,8.62
2018-11-26T12:10:48.889Z,8.53
2018-11-26T12:13:18.905Z,8.50
2018-11-26T12:15:51.262Z,8.54
2018-11-26T12:18:21.208Z,8.54
2018-11-26T12:20:51.113Z,8.52
2018-11-26T12:23:21.054Z,8.56
2018-11-26T12:25:50.953Z,8.63
2018-11-26T12:28:28.446Z,8.62
2018-11-26T12:31:03.777Z,8.55
2018-11-26T12:33:34.301Z,8.68
2018-11-26T12:36:04.198Z,8.61
2018-11-26T12:38:34.102Z,8.48
2018-11-26T12:41:03.990Z,8.39
2018-11-26T12:43:34.069Z,8.51
2018-11-26T12:46:04.057Z,8.55
2018-11-26T12:48:33.956Z,8.69
2018-11-26T12:51:03.882Z,8.58
2018-11-26T12:53:33.838Z,8.62
2018-11-26T12:56:03.739Z,8.61
2018-11-26T12:58:33.650Z,8.59
2018-11-26T13:01:03.649Z,8.69
2018-11-26T13:03:33.585Z,8.64
2018-11-26T13:06:03.533Z,8.70
2018-11-26T13:08:33.506Z,8.69
2018-11-26T13:11:03.408Z,8.68
2018-11-26T13:13:33.313Z,8.74
2018-11-26T13:16:04.421Z,8.65
2018-11-26T13:18:34.632Z,8.53
2018-11-26T13:21:04.566Z,8.61
2018-11-26T13:23:34.446Z,8.71
2018-11-26T13:26:04.356Z,8.71
2018-11-26T13:28:34.267Z,8.72
2018-11-26T13:31:04.206Z,8.71
2018-11-26T13:33:34.103Z,8.69
2018-11-26T13:36:04.662Z,8.59
2018-11-26T13:38:34.813Z,8.58
2018-11-26T13:41:04.929Z,8.62
2018-11-26T13:43:34.825Z,8.67
2018-11-26T13:46:04.819Z,8.71
2018-11-26T13:48:34.722Z,8.61
2018-11-26T13:51:04.637Z,8.57
2018-11-26T13:53:34.654Z,8.62
2018-11-26T13:56:04.565Z,8.72
2018-11-26T13:58:34.700Z,8.58
2018-11-26T14:01:04.600Z,8.50
2018-11-26T14:03:34.522Z,8.52
2018-11-26T14:06:04.433Z,8.60
2018-11-26T14:08:34.337Z,8.57
2018-11-26T14:11:04.278Z,8.35
2018-11-26T14:13:34.270Z,8.37
2018-11-26T14:16:04.194Z,8.50
2018-11-26T14:18:34.109Z,8.50
2018-11-26T14:21:04.158Z,8.53
2018-11-26T14:23:34.065Z,8.53
2018-11-26T14:26:03.987Z,8.67
2018-11-26T14:28:33.886Z,8.59
2018-11-26T14:31:03.819Z,8.67
2018-11-26T14:33:33.733Z,8.55
2018-11-26T14:36:03.645Z,8.59
2018-11-26T14:38:33.564Z,8.62
2018-11-26T14:41:03.495Z,8.67
2018-11-26T14:43:33.388Z,8.57
2018-11-26T14:46:03.322Z,8.50
2018-11-26T14:48:33.234Z,8.53
2018-11-26T14:51:03.591Z,8.60
2018-11-26T14:53:33.503Z,8.55
2018-11-26T14:56:03.449Z,8.49
2018-11-26T14:58:33.626Z,8.58
2018-11-26T15:01:03.726Z,8.55
2018-11-26T15:03:33.681Z,8.56
2018-11-26T15:06:03.615Z,8.50
2018-11-26T15:08:33.537Z,8.43
2018-11-26T15:11:03.434Z,8.58
2018-11-26T15:13:33.365Z,8.57
2018-11-26T15:16:03.382Z,8.46
2018-11-26T15:18:33.253Z,8.49
2018-11-26T15:21:03.382Z,8.50
2018-11-26T15:23:33.294Z,8.54
2018-11-26T15:26:03.236Z,8.54
2018-11-26T15:28:33.237Z,8.57
2018-11-26T15:31:03.198Z,8.59
2018-11-26T15:33:33.113Z,8.55
2018-11-26T15:36:03.032Z,8.49
2018-11-26T15:38:32.945Z,8.50
2018-11-26T15:41:02.878Z,8.30
2018-11-26T15:43:33.078Z,8.29
2018-11-26T15:46:02.980Z,8.18
2018-11-26T15:48:33.003Z,8.25
2018-11-26T15:51:03.233Z,8.17
2018-11-26T15:53:33.133Z,8.10
2018-11-26T15:56:03.065Z,7.93
2018-11-26T15:58:32.956Z,7.94
2018-11-26T16:01:02.876Z,7.93
2018-11-26T16:03:32.778Z,8.09
2018-11-26T16:06:02.689Z,8.08
2018-11-26T16:08:32.618Z,8.01
2018-11-26T16:11:02.758Z,8.02
2018-11-26T16:13:32.730Z,8.09
2018-11-26T16:16:02.629Z,8.06
2018-11-26T16:18:32.847Z,8.07
2018-11-26T16:21:03.178Z,8.17
2018-11-26T16:23:38.529Z,8.07
2018-11-26T16:26:08.654Z,8.13
2018-11-26T16:28:38.894Z,8.16
2018-11-26T16:31:08.802Z,8.14
2018-11-26T16:33:38.886Z,8.12
2018-11-26T16:36:08.793Z,8.15
2018-11-26T16:38:39.646Z,8.11
2018-11-26T16:41:09.618Z,8.13
2018-11-26T16:43:41.470Z,8.15
2018-11-26T16:46:13.198Z,8.21
2018-11-26T16:48:43.137Z,8.10
2018-11-26T16:51:13.062Z,8.23
2018-11-26T16:53:42.952Z,8.24
2018-11-26T16:56:13.321Z,8.21
2018-11-26T16:58:43.217Z,8.17
2018-11-26T17:01:13.353Z,8.20
2018-11-26T17:03:43.254Z,8.12
2018-11-26T17:06:13.642Z,8.17
2018-11-26T17:08:43.588Z,8.07
2018-11-26T17:11:13.528Z,8.13
2018-11-26T17:13:43.483Z,8.16
2018-11-26T17:16:13.461Z,8.10
2018-11-26T17:18:43.357Z,7.96
2018-11-26T17:21:13.685Z,8.04
2018-11-26T17:23:43.706Z,8.04
2018-11-26T17:26:13.708Z,7.95
2018-11-26T17:28:43.690Z,7.93
2018-11-26T17:31:13.641Z,7.88
2018-11-26T17:33:43.712Z,7.82
2018-11-26T17:36:14.322Z,7.76
2018-11-26T17:38:44.238Z,7.80
2018-11-26T17:41:14.180Z,7.77
2018-11-26T17:43:44.148Z,7.91
2018-11-26T17:46:14.037Z,7.88
2018-11-26T17:48:43.951Z,7.89
2018-11-26T17:51:13.872Z,7.86
2018-11-26T17:53:43.901Z,8.00
2018-11-26T17:56:13.804Z,8.01
2018-11-26T17:58:43.725Z,8.02
2018-11-26T18:01:27.266Z,8.05
2018-11-26T18:03:57.217Z,8.08
2018-11-26T18:06:27.126Z,8.12
2018-11-26T18:08:57.111Z,8.08
2018-11-26T18:11:27.346Z,8.00
2018-11-26T18:13:57.293Z,8.04
2018-11-26T18:16:27.385Z,8.07
2018-11-26T18:18:57.297Z,8.02
2018-11-26T18:21:27.209Z,8.03
2018-11-26T18:23:57.211Z,8.11
2018-11-26T18:26:27.421Z,8.00
2018-11-26T18:28:57.471Z,8.01
2018-11-26T18:31:27.359Z,7.98
2018-11-26T18:33:57.306Z,8.01
2018-11-26T18:36:27.286Z,8.13
2018-11-26T18:38:57.318Z,8.08
2018-11-26T18:41:27.438Z,8.08
2018-11-26T18:43:57.713Z,8.10
2018-11-26T18:46:27.670Z,8.09
2018-11-26T18:48:57.677Z,8.12
2018-11-26T18:51:27.598Z,8.15
2018-11-26T18:53:57.542Z,8.18
2018-11-26T18:56:27.450Z,8.18
2018-11-26T18:58:57.385Z,8.18
2018-11-26T19:01:27.362Z,8.12
2018-11-26T19:03:57.269Z,8.20
2018-11-26T19:06:27.301Z,8.18
2018-11-26T19:08:57.242Z,8.22
2018-11-26T19:11:27.205Z,8.23
2018-11-26T19:14:08.085Z,8.24
2018-11-26T19:16:42.081Z,8.24
2018-11-26T19:24:17.296Z,8.01
2018-11-26T19:26:47.704Z,8.08
2018-11-26T19:29:17.724Z,8.09
2018-11-26T19:31:47.651Z,8.15
2018-11-26T19:34:19.293Z,8.19
2018-11-26T19:36:49.186Z,8.22
2018-11-26T19:39:19.320Z,8.20
2018-11-26T19:41:50.943Z,8.17
2018-11-26T19:44:21.337Z,8.22
2018-11-26T19:46:51.233Z,8.19
2018-11-26T19:49:21.190Z,8.25
2018-11-26T19:51:51.087Z,8.31
2018-11-26T19:54:21.081Z,8.28
2018-11-26T19:56:51.001Z,8.24
2018-11-26T19:59:20.910Z,8.16
2018-11-26T20:01:50.821Z,8.24
2018-11-26T20:04:30.381Z,8.09
2018-11-26T20:07:00.399Z,8.11
2018-11-26T20:09:30.335Z,8.17
2018-11-26T20:12:06.750Z,8.05
2018-11-26T20:14:37.939Z,8.12
2018-11-26T20:17:08.545Z,8.06
2018-11-26T20:19:38.459Z,8.11
2018-11-26T20:22:08.458Z,8.14
2018-11-26T20:24:38.414Z,8.12
2018-11-26T20:27:08.365Z,8.05
2018-11-26T20:29:38.273Z,7.99
2018-11-26T20:32:08.254Z,7.99
2018-11-26T20:34:38.250Z,8.05
2018-11-26T20:37:08.156Z,7.98
2018-11-26T20:39:38.090Z,7.95
2018-11-26T20:42:08.102Z,7.92
2018-11-26T20:44:38.022Z,7.88
2018-11-26T20:47:08.266Z,7.97
2018-11-26T20:49:38.285Z,7.89
2018-11-26T20:52:08.180Z,7.90
2018-11-26T20:54:38.203Z,7.94
2018-11-26T20:57:08.116Z,7.97
2018-11-26T20:59:38.127Z,8.02
2018-11-26T21:02:08.021Z,8.00
2018-11-26T21:04:37.950Z,8.06
2018-11-26T21:07:07.938Z,8.18
2018-11-26T21:09:37.895Z,8.22
2018-11-26T21:12:07.789Z,8.05
2018-11-26T21:14:37.717Z,8.10
2018-11-26T21:17:07.617Z,8.10
2018-11-26T21:19:37.546Z,8.18
2018-11-26T21:22:07.565Z,8.21
2018-11-26T21:24:37.482Z,8.20
2018-11-26T21:27:07.401Z,8.19
2018-11-26T21:29:37.385Z,8.24
2018-11-26T21:32:07.305Z,8.30
2018-11-26T21:34:37.216Z,8.34
2018-11-26T21:37:07.146Z,8.31
2018-11-26T21:39:37.356Z,8.32
2018-11-26T21:42:07.277Z,8.31
2018-11-26T21:44:37.307Z,8.28
2018-11-26T21:47:20.164Z,8.33
2018-11-26T21:49:50.323Z,8.28
2018-11-26T21:52:25.993Z,8.27
2018-11-26T21:54:56.023Z,8.32
2018-11-26T21:57:25.924Z,8.29
2018-11-26T21:59:55.841Z,8.32
2018-11-26T22:02:25.822Z,8.31
2018-11-26T22:04:55.729Z,8.32
2018-11-26T22:07:25.658Z,8.34
2018-11-26T22:09:55.609Z,8.31
2018-11-26T22:12:25.501Z,8.25
2018-11-26T22:14:55.422Z,8.32
2018-11-26T22:17:25.317Z,8.21
2018-11-26T22:19:55.354Z,8.22
2018-11-26T22:22:25.303Z,8.28
2018-11-26T22:24:55.197Z,8.10
2018-11-26T22:27:25.401Z,8.21
2018-11-26T22:29:55.304Z,8.20
2018-11-26T22:32:25.242Z,8.20
2018-11-26T22:34:55.242Z,8.17
2018-11-26T22:37:25.262Z,8.19
2018-11-26T22:39:55.302Z,8.28
2018-11-26T22:42:25.185Z,8.25
2018-11-26T22:44:55.188Z,8.19
2018-11-26T22:47:25.125Z,8.25
2018-11-26T22:49:55.037Z,8.26
2018-11-26T22:52:24.978Z,8.30
2018-11-26T22:54:54.966Z,8.30
2018-11-26T22:57:24.877Z,8.22
2018-11-26T22:59:54.766Z,8.21
2018-11-26T23:02:24.741Z,8.15
2018-11-26T23:04:54.842Z,8.23
2018-11-26T23:07:24.765Z,8.27
2018-11-26T23:09:54.656Z,8.27
2018-11-26T23:12:24.574Z,8.22
2018-11-26T23:14:54.477Z,8.22
2018-11-26T23:17:24.411Z,8.18
2018-11-26T23:19:54.669Z,8.26
2018-11-26T23:22:24.841Z,8.26
2018-11-26T23:24:54.736Z,8.30
2018-11-26T23:27:24.640Z,8.30
2018-11-26T23:29:54.556Z,8.24
2018-11-26T23:32:24.457Z,8.16
2018-11-26T23:34:54.359Z,8.26
2018-11-26T23:37:24.261Z,8.22
2018-11-26T23:39:54.377Z,8.23
2018-11-26T23:42:24.292Z,8.25
2018-11-26T23:44:54.205Z,8.29
2018-11-26T23:47:24.132Z,8.23
2018-11-26T23:49:54.061Z,8.18
2018-11-26T23:52:23.961Z,8.26
2018-11-26T23:54:53.870Z,8.24
2018-11-26T23:57:23.773Z,8.28
2018-11-26T23:59:53.757Z,8.24
